Time;durP1;ratioP1;P1;durP2;ratioP2;P2;SDS_P1;SDS_P2;PMS_P1;PMS_P2;Temp;Humidity;BMP_temperature;BMP_pressure;BME280_temperature;BME280_humidity;BME280_pressure;Samples;Min_cycle;Max_cycle;Signal;HPM_P1;HPM_P2
2022/07/01 00:00:24;;;;;;;12.82;9.20;;;;;;;;;;5033853;28;20056;-77
2022/07/01 00:02:50;;;;;;;13.93;10.25;;;;;;;;;;5027744;28;20031;-78
2022/07/01 00:05:15;;;;;;;13.63;10.38;;;;;;;;;;5007598;28;20021;-75
2022/07/01 00:07:41;;;;;;;15.35;10.82;;;;;;;;;;5030029;28;20056;-78
2022/07/01 00:10:07;;;;;;;14.60;10.27;;;;;;;;;;5030031;28;20489;-75
2022/07/01 00:12:32;;;;;;;15.00;9.95;;;;;;;;;;5029949;28;20021;-78
2022/07/01 00:14:58;;;;;;;15.00;10.30;;;;;;;;;;5007450;28;20047;-77
2022/07/01 00:17:23;;;;;;;15.23;10.70;;;;;;;;;;5024834;28;20165;-74
2022/07/01 00:19:50;;;;;;;13.07;10.20;;;;;;;;;;5025745;28;20029;-75
2022/07/01 00:22:16;;;;;;;15.48;11.15;;;;;;;;;;5011696;28;20029;-74
2022/07/01 00:24:41;;;;;;;17.65;11.98;;;;;;;;;;5015091;28;20037;-74
2022/07/01 00:27:07;;;;;;;15.95;11.75;;;;;;;;;;5028463;28;20040;-78
2022/07/01 00:29:35;;;;;;;18.35;12.07;;;;;;;;;;5024151;28;20083;-75
2022/07/01 00:32:01;;;;;;;17.45;12.98;;;;;;;;;;5009079;28;20466;-78
2022/07/01 00:34:26;;;;;;;18.30;12.73;;;;;;;;;;5027575;28;20049;-74
2022/07/01 00:36:52;;;;;;;16.20;12.05;;;;;;;;;;5014317;28;20037;-77
2022/07/01 00:39:17;;;;;;;17.63;12.63;;;;;;;;;;5017149;28;20025;-75
2022/07/01 00:41:42;;;;;;;18.33;12.20;;;;;;;;;;5033007;28;20075;-73
2022/07/01 00:44:20;;;;;;;16.52;12.07;;;;;;;;;;5031802;28;20161;-77
2022/07/01 00:46:49;;;;;;;15.68;11.70;;;;;;;;;;5033141;28;20080;-75
2022/07/01 00:49:15;;;;;;;17.15;11.73;;;;;;;;;;5012778;28;20040;-75
2022/07/01 00:51:41;;;;;;;14.77;11.57;;;;;;;;;;5026489;28;20028;-78
2022/07/01 00:54:07;;;;;;;16.02;10.68;;;;;;;;;;5031399;28;20379;-74
2022/07/01 00:56:32;;;;;;;15.02;11.35;;;;;;;;;;5031310;28;20029;-77
2022/07/01 00:58:58;;;;;;;15.43;11.63;;;;;;;;;;5032376;28;20029;-75
2022/07/01 01:01:23;;;;;;;14.85;10.80;;;;;;;;;;5015453;28;20065;-79
2022/07/01 01:03:49;;;;;;;13.93;10.85;;;;;;;;;;5015823;28;20044;-74
2022/07/01 01:06:16;;;;;;;13.30;10.10;;;;;;;;;;5031391;28;20017;-78
2022/07/01 01:08:42;;;;;;;14.50;10.55;;;;;;;;;;5011677;28;20116;-75
2022/07/01 01:11:07;;;;;;;16.75;11.85;;;;;;;;;;5031994;28;20488;-75
2022/07/01 01:13:33;;;;;;;15.20;11.10;;;;;;;;;;5020670;28;20063;-78
2022/07/01 01:15:59;;;;;;;15.82;11.13;;;;;;;;;;5012963;28;20044;-76
2022/07/01 01:18:24;;;;;;;15.10;11.05;;;;;;;;;;5033218;28;20025;-78
2022/07/01 01:20:52;;;;;;;14.18;10.52;;;;;;;;;;5036338;28;20029;-78
2022/07/01 01:23:17;;;;;;;14.00;10.90;;;;;;;;;;5028720;28;20025;-73
2022/07/01 01:25:43;;;;;;;13.27;10.23;;;;;;;;;;5031659;28;20056;-78
2022/07/01 01:28:08;;;;;;;15.18;10.30;;;;;;;;;;5028832;28;20029;-74
2022/07/01 01:30:35;;;;;;;13.90;9.80;;;;;;;;;;5035866;28;20120;-78
2022/07/01 01:33:04;;;;;;;16.02;10.27;;;;;;;;;;5027416;28;20058;-77
2022/07/01 01:35:29;;;;;;;14.57;10.75;;;;;;;;;;5026717;28;20565;-75
2022/07/01 01:37:54;;;;;;;13.52;10.35;;;;;;;;;;5028507;28;20139;-77
2022/07/01 01:40:20;;;;;;;14.75;10.25;;;;;;;;;;5014496;28;20040;-79
2022/07/01 01:42:46;;;;;;;13.32;10.57;;;;;;;;;;5006942;28;20025;-75
2022/07/01 01:45:12;;;;;;;14.80;10.55;;;;;;;;;;5022790;28;20036;-74
2022/07/01 01:47:37;;;;;;;14.80;10.55;;;;;;;;;;5028352;28;20060;-78
2022/07/01 01:50:08;;;;;;;14.43;10.48;;;;;;;;;;5017162;28;20051;-78
2022/07/01 01:52:33;;;;;;;18.17;10.90;;;;;;;;;;5023074;28;20102;-77
2022/07/01 01:54:59;;;;;;;16.52;11.93;;;;;;;;;;5028346;28;20521;-78
2022/07/01 01:57:25;;;;;;;15.38;11.07;;;;;;;;;;5032560;28;20032;-78
2022/07/01 01:59:50;;;;;;;17.95;11.32;;;;;;;;;;5008982;28;20112;-73
2022/07/01 02:02:16;;;;;;;15.20;10.88;;;;;;;;;;5024008;28;20490;-75
2022/07/01 02:04:41;;;;;;;15.30;10.75;;;;;;;;;;5029139;28;20029;-77
2022/07/01 02:07:07;;;;;;;15.27;11.00;;;;;;;;;;5024455;28;20121;-75
2022/07/01 02:09:32;;;;;;;15.65;11.80;;;;;;;;;;5011391;28;20037;-77
2022/07/01 02:11:57;;;;;;;16.48;12.23;;;;;;;;;;5005916;28;20485;-77
2022/07/01 02:14:23;;;;;;;15.73;11.55;;;;;;;;;;5024472;28;20022;-73
2022/07/01 02:16:48;;;;;;;16.60;10.82;;;;;;;;;;5006772;28;20033;-75
2022/07/01 02:19:14;;;;;;;17.27;13.05;;;;;;;;;;5029701;28;20032;-73
2022/07/01 02:21:39;;;;;;;18.63;13.07;;;;;;;;;;5008312;28;20033;-74
2022/07/01 02:24:05;;;;;;;17.33;12.40;;;;;;;;;;5026883;28;20073;-76
2022/07/01 02:26:30;;;;;;;19.60;13.35;;;;;;;;;;5025839;28;20089;-75
2022/07/01 02:28:55;;;;;;;16.77;12.02;;;;;;;;;;5029395;28;20064;-74
2022/07/01 02:31:21;;;;;;;19.05;12.85;;;;;;;;;;5026354;28;20046;-76
2022/07/01 02:33:48;;;;;;;17.58;12.95;;;;;;;;;;5009229;28;20048;-74
2022/07/01 02:36:13;;;;;;;19.15;13.48;;;;;;;;;;5029149;28;20029;-75
2022/07/01 02:38:39;;;;;;;20.23;13.43;;;;;;;;;;5027530;28;20489;-73
2022/07/01 02:41:04;;;;;;;19.75;13.55;;;;;;;;;;5007690;28;20021;-75
2022/07/01 02:43:30;;;;;;;23.25;13.77;;;;;;;;;;5027091;28;20033;-74
2022/07/01 02:45:57;;;;;;;18.45;13.15;;;;;;;;;;5000175;28;20060;-78
2022/07/01 02:48:22;;;;;;;18.20;13.15;;;;;;;;;;5028176;28;22268;-77
2022/07/01 02:50:47;;;;;;;18.15;13.20;;;;;;;;;;5021016;28;20021;-74
2022/07/01 02:53:13;;;;;;;19.02;13.13;;;;;;;;;;5027587;28;20021;-73
2022/07/01 02:55:38;;;;;;;20.63;13.82;;;;;;;;;;5011736;28;20362;-75
2022/07/01 02:58:04;;;;;;;19.70;12.68;;;;;;;;;;5026260;28;20025;-76
2022/07/01 03:00:29;;;;;;;21.33;12.95;;;;;;;;;;5008660;28;20428;-74
2022/07/01 03:02:55;;;;;;;16.83;11.93;;;;;;;;;;5012593;28;20111;-76
2022/07/01 03:05:21;;;;;;;18.85;12.45;;;;;;;;;;5034897;28;20048;-77
2022/07/01 03:07:46;;;;;;;17.77;11.73;;;;;;;;;;5025486;28;20037;-77
2022/07/01 03:10:12;;;;;;;18.27;13.05;;;;;;;;;;5024277;28;20448;-77
2022/07/01 03:12:40;;;;;;;18.45;12.63;;;;;;;;;;5011448;28;20029;-77
2022/07/01 03:15:10;;;;;;;17.85;12.25;;;;;;;;;;5030379;28;20113;-77
2022/07/01 03:17:38;;;;;;;20.95;12.48;;;;;;;;;;5029269;28;20099;-77
2022/07/01 03:20:05;;;;;;;18.25;12.57;;;;;;;;;;5030787;28;20484;-75
2022/07/01 03:22:32;;;;;;;19.65;12.90;;;;;;;;;;5027405;28;20025;-76
2022/07/01 03:24:58;;;;;;;21.77;12.80;;;;;;;;;;5009833;28;20469;-77
2022/07/01 03:27:24;;;;;;;19.08;12.73;;;;;;;;;;5015068;28;20051;-76
2022/07/01 03:29:50;;;;;;;20.33;12.82;;;;;;;;;;5030158;28;20148;-77
2022/07/01 03:32:16;;;;;;;19.75;12.90;;;;;;;;;;5028692;28;20022;-77
2022/07/01 03:34:44;;;;;;;19.70;13.32;;;;;;;;;;5022428;28;20478;-78
2022/07/01 03:37:11;;;;;;;19.95;13.05;;;;;;;;;;5009800;28;20035;-74
2022/07/01 03:39:37;;;;;;;21.98;13.75;;;;;;;;;;5026460;28;20539;-77
2022/07/01 03:42:04;;;;;;;20.52;14.02;;;;;;;;;;5025209;28;20029;-73
2022/07/01 03:44:30;;;;;;;23.55;13.90;;;;;;;;;;5022326;28;20032;-76
2022/07/01 03:46:56;;;;;;;21.40;13.93;;;;;;;;;;5027974;28;20102;-75
2022/07/01 03:49:22;;;;;;;21.48;12.82;;;;;;;;;;5011735;28;20021;-77
2022/07/01 03:51:48;;;;;;;22.83;13.68;;;;;;;;;;5029596;28;20103;-75
2022/07/01 03:54:37;;;;;;;21.70;14.32;;;;;;;;;;5028302;28;20674;-77
2022/07/01 03:57:08;;;;;;;20.02;13.60;;;;;;;;;;5009716;28;20125;-76
2022/07/01 03:59:36;;;;;;;22.83;13.77;;;;;;;;;;5025122;28;20036;-76
2022/07/01 04:02:03;;;;;;;21.35;13.35;;;;;;;;;;5024714;28;20022;-77
2022/07/01 04:04:29;;;;;;;22.67;13.70;;;;;;;;;;5010942;28;20452;-77
2022/07/01 04:07:00;;;;;;;20.17;12.63;;;;;;;;;;5026064;28;20116;-77
2022/07/01 04:09:26;;;;;;;23.00;14.35;;;;;;;;;;5008061;28;20504;-74
2022/07/01 04:11:53;;;;;;;20.15;12.95;;;;;;;;;;5025451;28;20029;-77
2022/07/01 04:14:18;;;;;;;20.20;12.55;;;;;;;;;;5031961;28;20112;-76
2022/07/01 04:16:45;;;;;;;18.70;12.27;;;;;;;;;;5008052;28;20113;-75
2022/07/01 04:19:11;;;;;;;24.50;13.90;;;;;;;;;;5024457;28;20434;-77
2022/07/01 04:24:22;;;;;;;25.17;14.30;;;;;;;;;;5027822;28;20033;-76
2022/07/01 04:26:48;;;;;;;23.70;13.90;;;;;;;;;;5024722;28;20540;-78
2022/07/01 04:29:13;;;;;;;22.17;11.85;;;;;;;;;;5010635;28;20140;-77
2022/07/01 04:31:39;;;;;;;22.73;13.57;;;;;;;;;;5007093;28;20433;-73
2022/07/01 04:34:06;;;;;;;21.88;11.77;;;;;;;;;;5027073;28;20053;-78
2022/07/01 04:36:31;;;;;;;20.90;12.63;;;;;;;;;;5008703;28;20017;-75
2022/07/01 04:38:57;;;;;;;23.38;12.90;;;;;;;;;;5030137;28;20481;-78
2022/07/01 04:44:07;;;;;;;21.17;12.93;;;;;;;;;;5029554;28;20037;-77
2022/07/01 04:46:32;;;;;;;17.15;11.45;;;;;;;;;;5011260;28;20029;-77
2022/07/01 04:48:57;;;;;;;20.50;11.82;;;;;;;;;;5022591;28;20068;-73
2022/07/01 04:51:23;;;;;;;20.42;12.40;;;;;;;;;;5026242;28;20035;-75
2022/07/01 04:53:49;;;;;;;20.50;12.07;;;;;;;;;;5027314;28;20029;-75
2022/07/01 04:56:14;;;;;;;20.17;12.32;;;;;;;;;;5007671;28;20095;-77
2022/07/01 04:58:40;;;;;;;20.70;12.52;;;;;;;;;;5031683;28;20469;-75
2022/07/01 05:01:05;;;;;;;19.85;12.20;;;;;;;;;;5010373;28;20493;-75
2022/07/01 05:03:31;;;;;;;21.60;12.32;;;;;;;;;;5027940;28;20079;-77
2022/07/01 05:05:56;;;;;;;22.77;13.20;;;;;;;;;;5027270;28;20540;-77
2022/07/01 05:08:21;;;;;;;23.17;13.10;;;;;;;;;;5021053;28;20033;-77
2022/07/01 05:10:47;;;;;;;23.80;12.90;;;;;;;;;;5025864;28;20041;-77
2022/07/01 05:13:12;;;;;;;20.00;12.10;;;;;;;;;;5009545;28;20104;-75
2022/07/01 05:15:38;;;;;;;21.73;13.45;;;;;;;;;;5031374;28;20033;-74
2022/07/01 05:23:31;;;;;;;22.27;13.27;;;;;;;;;;5028999;28;20036;-75
2022/07/01 05:25:57;;;;;;;24.08;13.50;;;;;;;;;;5029673;28;20033;-73
2022/07/01 05:28:22;;;;;;;22.25;12.23;;;;;;;;;;5005881;28;20033;-74
2022/07/01 05:30:47;;;;;;;20.55;12.85;;;;;;;;;;5020738;28;20100;-73
2022/07/01 05:33:13;;;;;;;22.95;13.95;;;;;;;;;;5029208;28;20064;-78
2022/07/01 05:35:38;;;;;;;24.23;13.90;;;;;;;;;;5009807;28;20021;-77
2022/07/01 05:38:04;;;;;;;22.17;14.07;;;;;;;;;;5006087;28;20032;-73
2022/07/01 05:40:29;;;;;;;22.92;13.23;;;;;;;;;;5028360;28;20060;-73
2022/07/01 05:42:55;;;;;;;23.88;12.85;;;;;;;;;;5029700;28;20370;-75
2022/07/01 05:45:20;;;;;;;22.27;13.27;;;;;;;;;;5023951;28;20473;-78
2022/07/01 05:47:46;;;;;;;22.98;13.38;;;;;;;;;;5027490;28;20079;-75
2022/07/01 05:50:11;;;;;;;26.35;13.40;;;;;;;;;;5024907;28;21248;-79
2022/07/01 05:52:37;;;;;;;20.27;13.23;;;;;;;;;;5031557;28;20032;-74
2022/07/01 05:55:02;;;;;;;24.80;13.10;;;;;;;;;;5027813;28;20730;-78
2022/07/01 05:57:28;;;;;;;23.63;13.60;;;;;;;;;;5010942;28;20044;-79
2022/07/01 05:59:53;;;;;;;24.13;13.73;;;;;;;;;;5023539;28;20028;-75
2022/07/01 06:02:18;;;;;;;23.55;13.27;;;;;;;;;;5017211;28;20025;-74
2022/07/01 06:04:47;;;;;;;22.98;13.50;;;;;;;;;;5029885;28;20385;-83
2022/07/01 06:07:12;;;;;;;21.05;11.98;;;;;;;;;;5031781;28;20052;-77
2022/07/01 06:09:38;;;;;;;23.33;12.80;;;;;;;;;;5009426;28;20493;-76
2022/07/01 06:12:05;;;;;;;21.65;12.65;;;;;;;;;;5028185;28;20041;-73
2022/07/01 06:14:30;;;;;;;21.38;13.35;;;;;;;;;;5009325;28;20018;-75
2022/07/01 06:16:56;;;;;;;23.70;11.65;;;;;;;;;;5029187;28;20032;-78
2022/07/01 06:19:21;;;;;;;21.92;13.20;;;;;;;;;;5029866;28;20033;-73
2022/07/01 06:21:47;;;;;;;20.88;13.10;;;;;;;;;;5012245;28;20037;-75
2022/07/01 06:24:12;;;;;;;19.75;11.90;;;;;;;;;;5007522;28;20116;-78
2022/07/01 06:26:38;;;;;;;22.83;12.25;;;;;;;;;;5030518;28;20071;-75
2022/07/01 06:29:03;;;;;;;20.20;11.75;;;;;;;;;;5013009;28;20077;-79
2022/07/01 06:31:29;;;;;;;20.58;12.45;;;;;;;;;;5004932;28;20501;-78
2022/07/01 06:33:55;;;;;;;17.77;10.70;;;;;;;;;;5008992;28;20026;-75
2022/07/01 06:36:20;;;;;;;19.77;11.63;;;;;;;;;;5009714;28;20779;-74
2022/07/01 06:38:46;;;;;;;18.98;11.05;;;;;;;;;;5014424;28;20029;-73
2022/07/01 06:41:27;;;;;;;18.65;10.43;;;;;;;;;;5011120;28;20038;-75
2022/07/01 06:43:56;;;;;;;16.65;9.77;;;;;;;;;;5011467;28;20025;-75
2022/07/01 06:46:22;;;;;;;18.90;10.10;;;;;;;;;;5013481;28;20021;-75
2022/07/01 06:48:47;;;;;;;16.02;9.23;;;;;;;;;;5015133;28;20029;-80
2022/07/01 06:51:13;;;;;;;18.88;9.70;;;;;;;;;;5014256;28;20120;-73
2022/07/01 06:53:38;;;;;;;15.52;8.32;;;;;;;;;;5010095;28;20030;-79
2022/07/01 06:56:04;;;;;;;12.98;8.65;;;;;;;;;;5014699;28;20022;-73
2022/07/01 06:58:30;;;;;;;12.98;8.38;;;;;;;;;;5010953;28;20517;-73
2022/07/01 07:00:55;;;;;;;11.93;8.10;;;;;;;;;;5006623;28;20034;-75
2022/07/01 07:03:20;;;;;;;12.55;6.55;;;;;;;;;;5008944;28;20493;-74
2022/07/01 07:05:46;;;;;;;10.55;6.25;;;;;;;;;;5008431;28;20108;-73
2022/07/01 07:08:11;;;;;;;11.65;6.75;;;;;;;;;;5010713;28;20025;-74
2022/07/01 07:10:37;;;;;;;11.95;6.63;;;;;;;;;;5009169;28;20037;-73
2022/07/01 07:13:02;;;;;;;10.93;6.20;;;;;;;;;;5003415;28;20014;-73
2022/07/01 07:15:27;;;;;;;10.43;6.13;;;;;;;;;;5007797;28;20089;-74
2022/07/01 07:17:57;;;;;;;12.32;5.95;;;;;;;;;;5013523;28;20021;-78
2022/07/01 07:20:24;;;;;;;7.32;4.65;;;;;;;;;;5012706;28;20030;-78
2022/07/01 07:22:49;;;;;;;10.98;5.20;;;;;;;;;;5007819;28;20034;-77
2022/07/01 07:25:15;;;;;;;9.38;4.75;;;;;;;;;;5006477;28;20467;-78
2022/07/01 07:27:40;;;;;;;9.18;5.28;;;;;;;;;;5006205;28;20447;-77
2022/07/01 07:30:06;;;;;;;7.90;4.57;;;;;;;;;;5012994;28;20495;-74
2022/07/01 07:32:31;;;;;;;7.93;4.70;;;;;;;;;;5006423;28;20124;-77
2022/07/01 07:34:57;;;;;;;7.55;4.38;;;;;;;;;;5012562;28;20379;-78
2022/07/01 07:37:22;;;;;;;6.45;3.90;;;;;;;;;;5008035;28;20043;-79
2022/07/01 07:39:47;;;;;;;7.30;4.30;;;;;;;;;;5003819;28;20112;-79
2022/07/01 07:42:13;;;;;;;7.43;3.92;;;;;;;;;;5008022;28;20018;-79
2022/07/01 07:44:38;;;;;;;8.40;3.65;;;;;;;;;;5006078;28;20033;-78
2022/07/01 07:47:04;;;;;;;8.68;4.05;;;;;;;;;;5013046;28;20108;-79
2022/07/01 07:49:29;;;;;;;7.47;3.70;;;;;;;;;;5009345;28;20045;-79
2022/07/01 07:51:55;;;;;;;7.35;3.50;;;;;;;;;;5002647;28;20034;-77
2022/07/01 07:54:20;;;;;;;7.95;3.83;;;;;;;;;;5015742;28;20029;-73
2022/07/01 07:56:46;;;;;;;6.88;3.90;;;;;;;;;;5005172;28;20066;-73
2022/07/01 07:59:12;;;;;;;10.13;3.55;;;;;;;;;;5006229;28;20521;-74
2022/07/01 08:01:37;;;;;;;4.90;3.22;;;;;;;;;;5005047;28;20026;-75
2022/07/01 08:04:03;;;;;;;7.40;3.80;;;;;;;;;;5011861;28;20030;-79
2022/07/01 08:06:28;;;;;;;6.97;3.00;;;;;;;;;;5007093;28;20473;-75
2022/07/01 08:08:54;;;;;;;8.93;3.40;;;;;;;;;;5006828;28;20072;-75
2022/07/01 08:11:20;;;;;;;8.20;3.22;;;;;;;;;;5008569;28;20124;-78
2022/07/01 08:13:45;;;;;;;5.43;2.92;;;;;;;;;;5013720;28;20037;-78
2022/07/01 08:16:11;;;;;;;6.68;3.22;;;;;;;;;;5005007;28;20571;-74
2022/07/01 08:18:36;;;;;;;5.47;2.97;;;;;;;;;;5005140;28;20021;-74
2022/07/01 08:21:02;;;;;;;5.57;2.85;;;;;;;;;;5012466;28;20060;-77
2022/07/01 08:23:28;;;;;;;4.95;2.70;;;;;;;;;;5013031;28;20121;-75
2022/07/01 08:25:53;;;;;;;7.70;3.03;;;;;;;;;;5009535;28;20025;-77
2022/07/01 08:28:18;;;;;;;7.43;3.28;;;;;;;;;;5004856;28;20030;-78
2022/07/01 08:30:44;;;;;;;6.95;3.35;;;;;;;;;;5011670;28;20029;-73
2022/07/01 08:33:11;;;;;;;5.70;3.17;;;;;;;;;;5009542;28;20087;-79
2022/07/01 08:35:37;;;;;;;5.68;3.15;;;;;;;;;;5026676;28;20018;-79
2022/07/01 08:38:03;;;;;;;5.78;3.90;;;;;;;;;;5010193;28;20104;-79
2022/07/01 08:40:30;;;;;;;7.25;4.00;;;;;;;;;;5010540;28;20029;-74
2022/07/01 08:42:57;;;;;;;5.80;3.30;;;;;;;;;;5016908;28;20029;-78
2022/07/01 08:45:26;;;;;;;6.43;3.13;;;;;;;;;;5012318;28;20052;-78
2022/07/01 08:47:55;;;;;;;7.10;3.83;;;;;;;;;;5022159;28;20025;-75
2022/07/01 08:50:21;;;;;;;4.80;3.33;;;;;;;;;;5024352;28;20477;-73
2022/07/01 08:52:46;;;;;;;4.68;3.30;;;;;;;;;;5032276;28;20029;-74
2022/07/01 08:55:11;;;;;;;5.97;3.25;;;;;;;;;;5008538;28;20021;-74
2022/07/01 08:57:37;;;;;;;6.25;3.63;;;;;;;;;;5031962;28;20024;-73
2022/07/01 09:00:05;;;;;;;5.70;2.50;;;;;;;;;;5008141;28;20113;-77
2022/07/01 09:03:00;;;;;;;4.63;2.50;;;;;;;;;;5016169;28;20108;-77
2022/07/01 09:05:27;;;;;;;5.10;1.40;;;;;;;;;;5024689;28;20022;-79
2022/07/01 09:08:02;;;;;;;3.63;1.65;;;;;;;;;;5008945;28;20033;-73
2022/07/01 09:10:30;;;;;;;3.50;1.45;;;;;;;;;;5023618;28;20049;-77
2022/07/01 09:12:56;;;;;;;5.78;1.35;;;;;;;;;;5030715;28;20053;-75
2022/07/01 09:15:27;;;;;;;5.38;1.55;;;;;;;;;;5028958;28;20072;-75
2022/07/01 09:17:55;;;;;;;2.28;1.70;;;;;;;;;;5030631;28;20033;-77
2022/07/01 09:20:25;;;;;;;2.15;1.40;;;;;;;;;;5007789;28;20087;-75
2022/07/01 09:23:05;;;;;;;2.97;1.50;;;;;;;;;;5033696;28;20386;-77
2022/07/01 09:25:45;;;;;;;3.78;1.65;;;;;;;;;;5025621;28;20026;-73
2022/07/01 09:28:13;;;;;;;5.97;2.03;;;;;;;;;;5023291;28;20070;-79
2022/07/01 09:30:42;;;;;;;3.85;1.98;;;;;;;;;;5009613;28;20042;-77
2022/07/01 09:33:11;;;;;;;5.55;2.00;;;;;;;;;;5025106;28;20025;-75
2022/07/01 09:35:37;;;;;;;4.70;1.90;;;;;;;;;;5024028;28;20013;-74
2022/07/01 09:38:05;;;;;;;3.20;1.85;;;;;;;;;;5032109;28;20496;-79
2022/07/01 09:40:57;;;;;;;4.45;2.10;;;;;;;;;;5024404;28;20489;-77
2022/07/01 09:43:25;;;;;;;3.55;1.80;;;;;;;;;;5033202;28;20026;-78
2022/07/01 09:46:05;;;;;;;4.15;2.00;;;;;;;;;;5024555;28;20083;-77
2022/07/01 09:48:33;;;;;;;4.07;2.17;;;;;;;;;;5025736;28;20029;-77
2022/07/01 09:50:59;;;;;;;6.55;3.00;;;;;;;;;;5007274;28;20076;-73
2022/07/01 09:53:25;;;;;;;7.22;2.75;;;;;;;;;;5015468;28;20044;-79
2022/07/01 09:55:51;;;;;;;9.60;2.80;;;;;;;;;;5026008;28;20021;-74
2022/07/01 09:58:17;;;;;;;4.82;3.05;;;;;;;;;;5025483;28;20056;-74
2022/07/01 10:00:42;;;;;;;5.85;3.05;;;;;;;;;;5010535;28;20501;-79
2022/07/01 10:03:08;;;;;;;4.57;2.35;;;;;;;;;;5031173;28;20061;-78
2022/07/01 10:05:47;;;;;;;4.00;1.92;;;;;;;;;;5023008;28;20128;-77
2022/07/01 10:08:30;;;;;;;2.53;1.90;;;;;;;;;;5010275;28;20025;-78
2022/07/01 10:11:17;;;;;;;3.10;2.28;;;;;;;;;;5008020;28;20485;-77
2022/07/01 10:13:43;;;;;;;3.80;2.50;;;;;;;;;;5005927;28;20633;-75
2022/07/01 10:16:10;;;;;;;6.18;2.70;;;;;;;;;;5009148;28;20044;-73
2022/07/01 10:18:35;;;;;;;4.35;2.70;;;;;;;;;;5027057;28;20021;-74
2022/07/01 10:21:03;;;;;;;6.63;2.60;;;;;;;;;;5008239;28;20359;-73
2022/07/01 10:23:38;;;;;;;2.97;2.15;;;;;;;;;;5032490;28;20453;-78
2022/07/01 10:26:05;;;;;;;5.55;2.67;;;;;;;;;;5027329;28;20074;-74
2022/07/01 10:28:48;;;;;;;3.42;2.60;;;;;;;;;;5026239;28;20374;-77
2022/07/01 10:31:16;;;;;;;5.32;2.53;;;;;;;;;;5024955;28;20105;-77
2022/07/01 10:33:55;;;;;;;4.15;2.58;;;;;;;;;;5030127;28;20095;-77
2022/07/01 10:36:32;;;;;;;5.25;2.40;;;;;;;;;;5028436;28;20080;-74
2022/07/01 10:39:00;;;;;;;4.10;1.77;;;;;;;;;;5008292;28;20444;-78
2022/07/01 10:41:31;;;;;;;3.47;2.05;;;;;;;;;;5007491;28;20038;-73
2022/07/01 10:43:58;;;;;;;4.10;2.28;;;;;;;;;;5009904;28;20474;-74
2022/07/01 10:46:49;;;;;;;3.58;1.95;;;;;;;;;;5026894;28;20028;-78
2022/07/01 10:49:21;;;;;;;5.97;2.20;;;;;;;;;;5005679;28;20084;-77
2022/07/01 10:51:57;;;;;;;2.30;1.50;;;;;;;;;;5013638;28;20428;-79
2022/07/01 10:54:39;;;;;;;2.63;1.77;;;;;;;;;;5026232;28;20104;-74
2022/07/01 10:57:16;;;;;;;3.03;1.90;;;;;;;;;;5006717;28;20036;-77
2022/07/01 10:59:43;;;;;;;3.10;1.90;;;;;;;;;;5025039;28;20025;-73
2022/07/01 11:02:13;;;;;;;4.88;2.42;;;;;;;;;;5024156;28;20034;-76
2022/07/01 11:04:39;;;;;;;5.55;2.35;;;;;;;;;;5031788;28;20022;-78
2022/07/01 11:07:04;;;;;;;5.47;2.28;;;;;;;;;;5026660;28;20136;-74
2022/07/01 11:09:30;;;;;;;3.45;2.10;;;;;;;;;;5029942;28;20057;-73
2022/07/01 11:11:56;;;;;;;2.65;1.90;;;;;;;;;;5031256;28;20033;-75
2022/07/01 11:14:22;;;;;;;4.35;2.10;;;;;;;;;;5026699;28;20025;-72
2022/07/01 11:16:48;;;;;;;3.78;2.00;;;;;;;;;;5030326;28;20107;-77
2022/07/01 11:19:17;;;;;;;2.60;1.90;;;;;;;;;;5028232;28;20036;-77
2022/07/01 11:21:52;;;;;;;5.50;2.13;;;;;;;;;;5031619;28;20029;-73
2022/07/01 11:24:18;;;;;;;6.43;2.53;;;;;;;;;;5016270;28;20581;-74
2022/07/01 11:26:44;;;;;;;3.10;2.20;;;;;;;;;;5012760;28;20025;-75
2022/07/01 11:29:14;;;;;;;3.78;2.78;;;;;;;;;;5023920;28;20045;-73
2022/07/01 11:31:40;;;;;;;4.70;2.40;;;;;;;;;;5031831;28;20025;-73
2022/07/01 11:34:06;;;;;;;3.65;2.20;;;;;;;;;;5031794;28;20469;-75
2022/07/01 11:39:22;;;;;;;5.07;2.17;;;;;;;;;;5027107;28;20117;-73
2022/07/01 11:41:58;;;;;;;2.55;2.17;;;;;;;;;;5031023;28;20485;-72
2022/07/01 11:44:36;;;;;;;4.45;3.03;;;;;;;;;;5028718;28;20053;-76
2022/07/01 11:47:21;;;;;;;5.63;2.63;;;;;;;;;;5034176;28;20029;-76
2022/07/01 11:49:48;;;;;;;3.80;2.85;;;;;;;;;;5010048;28;20082;-70
2022/07/01 11:52:15;;;;;;;4.88;2.72;;;;;;;;;;5026603;28;20033;-76
2022/07/01 11:54:43;;;;;;;3.90;2.90;;;;;;;;;;5011308;28;20523;-73
2022/07/01 11:57:09;;;;;;;4.65;2.78;;;;;;;;;;5026787;28;20087;-70
2022/07/01 11:59:36;;;;;;;4.65;2.20;;;;;;;;;;5009346;28;20033;-70
2022/07/01 12:02:02;;;;;;;3.97;2.17;;;;;;;;;;5024269;28;20022;-73
2022/07/01 12:04:30;;;;;;;5.70;2.35;;;;;;;;;;5022373;28;20098;-72
2022/07/01 12:06:55;;;;;;;4.40;2.28;;;;;;;;;;5018970;28;20028;-69
2022/07/01 12:09:21;;;;;;;4.35;2.70;;;;;;;;;;5008283;28;20033;-70
2022/07/01 12:11:53;;;;;;;6.20;2.80;;;;;;;;;;5013220;28;20481;-69
2022/07/01 12:14:28;;;;;;;5.72;3.05;;;;;;;;;;5029164;28;20045;-74
2022/07/01 12:17:05;;;;;;;4.30;2.60;;;;;;;;;;5025231;28;20034;-74
2022/07/01 12:19:46;;;;;;;3.95;2.50;;;;;;;;;;5026207;28;20021;-70
2022/07/01 12:22:15;;;;;;;3.60;2.50;;;;;;;;;;5026090;28;20025;-70
2022/07/01 12:24:41;;;;;;;4.97;2.42;;;;;;;;;;5009507;28;20520;-74
2022/07/01 12:27:08;;;;;;;4.32;2.30;;;;;;;;;;5027841;28;20508;-72
2022/07/01 12:29:45;;;;;;;3.38;1.95;;;;;;;;;;5011863;28;20509;-74
2022/07/01 12:32:13;;;;;;;3.33;2.10;;;;;;;;;;5032067;28;20397;-73
2022/07/01 12:34:45;;;;;;;4.97;1.88;;;;;;;;;;5030824;28;20025;-75
2022/07/01 12:37:13;;;;;;;3.25;1.50;;;;;;;;;;5009004;28;20029;-71
2022/07/01 12:39:50;;;;;;;2.60;1.45;;;;;;;;;;5029850;28;20497;-71
2022/07/01 12:42:21;;;;;;;4.03;1.52;;;;;;;;;;5029239;28;20021;-70
2022/07/01 12:44:47;;;;;;;2.88;1.00;;;;;;;;;;5007150;28;20373;-76
2022/07/01 12:47:19;;;;;;;2.25;1.00;;;;;;;;;;5035026;28;20032;-74
2022/07/01 12:49:45;;;;;;;3.75;1.02;;;;;;;;;;5007898;28;20057;-74
2022/07/01 12:52:26;;;;;;;3.85;1.08;;;;;;;;;;5008992;28;20072;-76
2022/07/01 12:54:52;;;;;;;2.03;0.93;;;;;;;;;;5029681;28;20032;-69
2022/07/01 12:57:27;;;;;;;2.95;1.08;;;;;;;;;;5028179;28;20382;-74
2022/07/01 12:59:53;;;;;;;2.65;0.90;;;;;;;;;;5028216;28;20025;-73
2022/07/01 13:02:18;;;;;;;3.78;1.50;;;;;;;;;;5026796;28;20037;-70
2022/07/01 13:04:43;;;;;;;2.88;1.20;;;;;;;;;;5026564;28;20112;-75
2022/07/01 13:07:09;;;;;;;4.43;0.82;;;;;;;;;;5026872;28;20037;-70
2022/07/01 13:09:34;;;;;;;2.90;1.20;;;;;;;;;;5027923;28;20025;-74
2022/07/01 13:12:00;;;;;;;2.88;1.10;;;;;;;;;;5006428;28;20508;-73
2022/07/01 13:14:25;;;;;;;3.15;1.02;;;;;;;;;;5027976;28;20025;-76
2022/07/01 13:16:50;;;;;;;1.83;0.85;;;;;;;;;;5022980;28;20256;-69
2022/07/01 13:19:16;;;;;;;3.92;1.10;;;;;;;;;;5027322;28;20021;-73
2022/07/01 13:21:41;;;;;;;2.15;0.93;;;;;;;;;;5028953;28;20444;-75
2022/07/01 13:24:06;;;;;;;4.68;1.20;;;;;;;;;;5027453;28;20025;-74
2022/07/01 13:26:32;;;;;;;2.15;1.15;;;;;;;;;;5027855;28;20114;-74
2022/07/01 13:28:57;;;;;;;4.78;1.27;;;;;;;;;;5028087;28;20137;-73
2022/07/01 13:31:23;;;;;;;1.80;1.02;;;;;;;;;;5011195;28;20021;-73
2022/07/01 13:33:48;;;;;;;2.72;1.30;;;;;;;;;;5028312;28;20036;-73
2022/07/01 13:36:15;;;;;;;2.42;1.10;;;;;;;;;;5012370;28;20027;-70
2022/07/01 13:38:40;;;;;;;2.83;1.20;;;;;;;;;;5009110;28;20166;-73
2022/07/01 13:41:07;;;;;;;2.53;1.23;;;;;;;;;;5023010;28;20108;-70
2022/07/01 13:43:33;;;;;;;2.45;1.00;;;;;;;;;;5029453;28;20159;-73
2022/07/01 13:45:58;;;;;;;2.55;1.00;;;;;;;;;;5021286;28;20160;-73
2022/07/01 13:48:23;;;;;;;2.85;1.15;;;;;;;;;;5024923;28;20029;-73
2022/07/01 13:50:49;;;;;;;2.33;1.08;;;;;;;;;;5028680;28;20033;-73
2022/07/01 13:53:14;;;;;;;1.77;1.00;;;;;;;;;;5026871;28;20029;-76
2022/07/01 13:55:40;;;;;;;1.83;1.00;;;;;;;;;;5027048;28;20025;-72
2022/07/01 13:58:05;;;;;;;1.77;1.00;;;;;;;;;;5033090;28;20026;-77
2022/07/01 14:00:30;;;;;;;3.72;1.10;;;;;;;;;;5023766;28;20033;-75
2022/07/01 14:02:56;;;;;;;3.38;1.15;;;;;;;;;;5028280;28;20029;-75
2022/07/01 14:05:21;;;;;;;3.50;1.42;;;;;;;;;;5025151;28;20650;-74
2022/07/01 14:07:47;;;;;;;4.95;1.40;;;;;;;;;;5024024;28;20040;-74
2022/07/01 14:10:12;;;;;;;2.25;1.20;;;;;;;;;;5030207;28;20564;-71
2022/07/01 14:12:38;;;;;;;2.95;1.52;;;;;;;;;;5030120;28;20026;-70
2022/07/01 14:15:03;;;;;;;2.63;1.30;;;;;;;;;;5018378;28;20071;-74
2022/07/01 14:17:29;;;;;;;2.00;1.15;;;;;;;;;;5024167;28;20022;-74
2022/07/01 14:19:56;;;;;;;2.55;1.23;;;;;;;;;;5023435;28;20033;-75
2022/07/01 14:22:22;;;;;;;2.70;1.10;;;;;;;;;;5024384;28;20025;-74
2022/07/01 14:24:47;;;;;;;2.92;1.17;;;;;;;;;;5006649;28;20040;-74
2022/07/01 14:27:13;;;;;;;2.22;1.20;;;;;;;;;;5025880;28;20075;-75
2022/07/01 14:29:38;;;;;;;2.38;1.10;;;;;;;;;;5026264;28;20057;-73
2022/07/01 14:32:04;;;;;;;2.47;1.25;;;;;;;;;;5026551;28;20048;-73
2022/07/01 14:34:30;;;;;;;4.38;1.60;;;;;;;;;;5026925;28;20492;-73
2022/07/01 14:36:55;;;;;;;2.60;1.40;;;;;;;;;;5019437;28;20030;-75
2022/07/01 14:39:20;;;;;;;4.78;2.13;;;;;;;;;;5020216;28;20026;-73
2022/07/01 14:41:49;;;;;;;4.97;1.60;;;;;;;;;;5019893;28;20137;-73
2022/07/01 14:44:16;;;;;;;2.15;1.40;;;;;;;;;;5000914;28;20120;-71